sensor_id;sensor_type;location;lat;lon;timestamp;P1;durP1;ratioP1;P2;durP2;ratioP2
9854;SDS011;4966;48.112;9.282;2022-08-19T00:01:50;37.40;;;18.95;;
9854;SDS011;4966;48.112;9.282;2022-08-19T00:04:18;36.67;;;19.75;;
9854;SDS011;4966;48.112;9.282;2022-08-19T00:06:46;38.70;;;19.77;;
9854;SDS011;4966;48.112;9.282;2022-08-19T00:09:13;36.25;;;19.60;;
9854;SDS011;4966;48.112;9.282;2022-08-19T00:11:42;35.33;;;18.77;;
9854;SDS011;4966;48.112;9.282;2022-08-19T00:14:09;38.30;;;20.17;;
9854;SDS011;4966;48.112;9.282;2022-08-19T00:16:38;34.50;;;19.08;;
9854;SDS011;4966;48.112;9.282;2022-08-19T00:19:04;38.55;;;19.45;;
9854;SDS011;4966;48.112;9.282;2022-08-19T00:21:30;36.85;;;20.23;;
9854;SDS011;4966;48.112;9.282;2022-08-19T00:23:56;39.45;;;20.13;;
9854;SDS011;4966;48.112;9.282;2022-08-19T00:26:23;38.38;;;20.40;;
9854;SDS011;4966;48.112;9.282;2022-08-19T00:28:49;37.08;;;19.88;;
9854;SDS011;4966;48.112;9.282;2022-08-19T00:31:15;43.50;;;20.65;;
9854;SDS011;4966;48.112;9.282;2022-08-19T00:33:41;44.05;;;20.58;;
9854;SDS011;4966;48.112;9.282;2022-08-19T00:36:08;38.20;;;20.20;;
9854;SDS011;4966;48.112;9.282;2022-08-19T00:38:35;43.55;;;21.95;;
9854;SDS011;4966;48.112;9.282;2022-08-19T00:41:02;46.80;;;21.63;;
9854;SDS011;4966;48.112;9.282;2022-08-19T00:43:28;40.88;;;20.20;;
9854;SDS011;4966;48.112;9.282;2022-08-19T00:45:54;37.53;;;19.65;;
9854;SDS011;4966;48.112;9.282;2022-08-19T00:48:20;38.92;;;19.58;;
9854;SDS011;4966;48.112;9.282;2022-08-19T00:50:46;36.55;;;20.60;;
9854;SDS011;4966;48.112;9.282;2022-08-19T00:53:14;34.55;;;18.60;;
9854;SDS011;4966;48.112;9.282;2022-08-19T00:55:47;34.42;;;19.40;;
9854;SDS011;4966;48.112;9.282;2022-08-19T00:58:15;36.95;;;19.52;;
9854;SDS011;4966;48.112;9.282;2022-08-19T01:00:43;37.45;;;20.55;;
9854;SDS011;4966;48.112;9.282;2022-08-19T01:03:11;32.47;;;17.63;;
9854;SDS011;4966;48.112;9.282;2022-08-19T01:05:41;37.05;;;18.30;;
9854;SDS011;4966;48.112;9.282;2022-08-19T01:08:08;37.65;;;18.48;;
9854;SDS011;4966;48.112;9.282;2022-08-19T01:10:39;37.53;;;18.63;;
9854;SDS011;4966;48.112;9.282;2022-08-19T01:13:07;34.60;;;18.25;;
9854;SDS011;4966;48.112;9.282;2022-08-19T01:15:34;35.15;;;19.02;;
9854;SDS011;4966;48.112;9.282;2022-08-19T01:18:05;36.83;;;17.90;;
9854;SDS011;4966;48.112;9.282;2022-08-19T01:20:34;35.25;;;19.23;;
9854;SDS011;4966;48.112;9.282;2022-08-19T01:22:59;38.65;;;18.95;;
9854;SDS011;4966;48.112;9.282;2022-08-19T01:25:26;34.13;;;18.95;;
9854;SDS011;4966;48.112;9.282;2022-08-19T01:27:56;35.22;;;18.20;;
9854;SDS011;4966;48.112;9.282;2022-08-19T01:30:27;36.10;;;19.85;;
9854;SDS011;4966;48.112;9.282;2022-08-19T01:32:55;36.80;;;19.80;;
9854;SDS011;4966;48.112;9.282;2022-08-19T01:35:22;36.72;;;18.38;;
9854;SDS011;4966;48.112;9.282;2022-08-19T01:37:53;33.03;;;18.92;;
9854;SDS011;4966;48.112;9.282;2022-08-19T01:40:19;33.92;;;18.73;;
9854;SDS011;4966;48.112;9.282;2022-08-19T01:42:48;34.95;;;18.30;;
9854;SDS011;4966;48.112;9.282;2022-08-19T01:45:15;36.55;;;18.48;;
9854;SDS011;4966;48.112;9.282;2022-08-19T01:47:42;36.97;;;19.27;;
9854;SDS011;4966;48.112;9.282;2022-08-19T01:50:09;35.40;;;19.02;;
9854;SDS011;4966;48.112;9.282;2022-08-19T01:52:36;39.42;;;19.15;;
9854;SDS011;4966;48.112;9.282;2022-08-19T01:55:03;37.17;;;19.23;;
9854;SDS011;4966;48.112;9.282;2022-08-19T01:57:30;35.53;;;18.30;;
9854;SDS011;4966;48.112;9.282;2022-08-19T01:59:56;37.22;;;18.30;;
9854;SDS011;4966;48.112;9.282;2022-08-19T02:02:21;34.22;;;19.42;;
9854;SDS011;4966;48.112;9.282;2022-08-19T02:04:47;32.40;;;18.08;;
9854;SDS011;4966;48.112;9.282;2022-08-19T02:07:12;35.40;;;17.88;;
9854;SDS011;4966;48.112;9.282;2022-08-19T02:09:38;34.83;;;18.38;;
9854;SDS011;4966;48.112;9.282;2022-08-19T02:12:04;36.45;;;18.30;;
9854;SDS011;4966;48.112;9.282;2022-08-19T02:14:33;28.58;;;16.15;;
9854;SDS011;4966;48.112;9.282;2022-08-19T02:16:59;30.63;;;15.98;;
9854;SDS011;4966;48.112;9.282;2022-08-19T02:19:24;35.28;;;18.02;;
9854;SDS011;4966;48.112;9.282;2022-08-19T02:21:50;30.85;;;17.35;;
9854;SDS011;4966;48.112;9.282;2022-08-19T02:24:15;32.35;;;16.98;;
9854;SDS011;4966;48.112;9.282;2022-08-19T02:26:41;34.83;;;18.20;;
9854;SDS011;4966;48.112;9.282;2022-08-19T02:29:06;32.20;;;17.42;;
9854;SDS011;4966;48.112;9.282;2022-08-19T02:31:31;37.17;;;17.80;;
9854;SDS011;4966;48.112;9.282;2022-08-19T02:33:58;35.25;;;18.67;;
9854;SDS011;4966;48.112;9.282;2022-08-19T02:36:24;40.83;;;18.60;;
9854;SDS011;4966;48.112;9.282;2022-08-19T02:38:50;37.03;;;18.95;;
9854;SDS011;4966;48.112;9.282;2022-08-19T02:41:18;36.08;;;18.35;;
9854;SDS011;4966;48.112;9.282;2022-08-19T02:43:45;34.72;;;17.52;;
9854;SDS011;4966;48.112;9.282;2022-08-19T02:46:15;32.30;;;16.90;;
9854;SDS011;4966;48.112;9.282;2022-08-19T02:48:52;31.02;;;16.10;;
9854;SDS011;4966;48.112;9.282;2022-08-19T02:51:52;30.98;;;16.35;;
9854;SDS011;4966;48.112;9.282;2022-08-19T02:54:11;33.92;;;18.63;;
9854;SDS011;4966;48.112;9.282;2022-08-19T02:56:39;30.02;;;16.17;;
9854;SDS011;4966;48.112;9.282;2022-08-19T02:59:06;33.45;;;17.75;;
9854;SDS011;4966;48.112;9.282;2022-08-19T03:01:36;35.85;;;17.00;;
9854;SDS011;4966;48.112;9.282;2022-08-19T03:04:05;39.17;;;18.25;;
9854;SDS011;4966;48.112;9.282;2022-08-19T03:06:32;36.30;;;19.45;;
9854;SDS011;4966;48.112;9.282;2022-08-19T03:09:01;35.45;;;17.80;;
9854;SDS011;4966;48.112;9.282;2022-08-19T03:11:30;33.85;;;16.58;;
9854;SDS011;4966;48.112;9.282;2022-08-19T03:13:58;35.67;;;17.80;;
9854;SDS011;4966;48.112;9.282;2022-08-19T03:16:26;35.88;;;17.38;;
9854;SDS011;4966;48.112;9.282;2022-08-19T03:18:55;38.22;;;17.80;;
9854;SDS011;4966;48.112;9.282;2022-08-19T03:21:25;33.78;;;16.52;;
9854;SDS011;4966;48.112;9.282;2022-08-19T03:23:55;37.65;;;17.52;;
9854;SDS011;4966;48.112;9.282;2022-08-19T03:26:21;31.20;;;17.42;;
9854;SDS011;4966;48.112;9.282;2022-08-19T03:28:46;33.15;;;16.88;;
9854;SDS011;4966;48.112;9.282;2022-08-19T03:31:15;35.58;;;17.30;;
9854;SDS011;4966;48.112;9.282;2022-08-19T03:33:42;36.53;;;16.50;;
9854;SDS011;4966;48.112;9.282;2022-08-19T03:36:11;34.28;;;17.30;;
9854;SDS011;4966;48.112;9.282;2022-08-19T03:38:40;32.90;;;17.17;;
9854;SDS011;4966;48.112;9.282;2022-08-19T03:41:12;32.85;;;16.95;;
9854;SDS011;4966;48.112;9.282;2022-08-19T03:43:40;33.05;;;15.98;;
9854;SDS011;4966;48.112;9.282;2022-08-19T03:46:08;34.15;;;17.02;;
9854;SDS011;4966;48.112;9.282;2022-08-19T03:48:36;36.03;;;19.13;;
9854;SDS011;4966;48.112;9.282;2022-08-19T03:51:04;33.92;;;15.07;;
9854;SDS011;4966;48.112;9.282;2022-08-19T03:53:30;32.17;;;16.35;;
9854;SDS011;4966;48.112;9.282;2022-08-19T03:55:56;34.72;;;16.83;;
9854;SDS011;4966;48.112;9.282;2022-08-19T03:58:24;36.60;;;17.35;;
9854;SDS011;4966;48.112;9.282;2022-08-19T04:00:50;32.33;;;16.42;;
9854;SDS011;4966;48.112;9.282;2022-08-19T04:03:16;35.75;;;16.48;;
9854;SDS011;4966;48.112;9.282;2022-08-19T04:05:43;35.40;;;16.25;;
9854;SDS011;4966;48.112;9.282;2022-08-19T04:08:09;35.50;;;16.98;;
9854;SDS011;4966;48.112;9.282;2022-08-19T04:10:37;37.67;;;16.92;;
9854;SDS011;4966;48.112;9.282;2022-08-19T04:13:03;36.53;;;16.70;;
9854;SDS011;4966;48.112;9.282;2022-08-19T04:15:31;34.45;;;16.40;;
9854;SDS011;4966;48.112;9.282;2022-08-19T04:18:00;35.90;;;16.25;;
9854;SDS011;4966;48.112;9.282;2022-08-19T04:20:26;36.60;;;17.40;;
9854;SDS011;4966;48.112;9.282;2022-08-19T04:22:51;33.78;;;15.75;;
9854;SDS011;4966;48.112;9.282;2022-08-19T04:25:17;35.10;;;16.30;;
9854;SDS011;4966;48.112;9.282;2022-08-19T04:27:42;32.13;;;16.00;;
9854;SDS011;4966;48.112;9.282;2022-08-19T04:32:37;31.80;;;16.27;;
9854;SDS011;4966;48.112;9.282;2022-08-19T04:35:02;36.28;;;16.83;;
9854;SDS011;4966;48.112;9.282;2022-08-19T04:37:28;40.22;;;18.02;;
9854;SDS011;4966;48.112;9.282;2022-08-19T04:42:41;35.38;;;17.80;;
9854;SDS011;4966;48.112;9.282;2022-08-19T04:45:10;39.88;;;17.52;;
9854;SDS011;4966;48.112;9.282;2022-08-19T04:47:39;37.40;;;18.33;;
9854;SDS011;4966;48.112;9.282;2022-08-19T04:50:06;48.03;;;19.38;;
9854;SDS011;4966;48.112;9.282;2022-08-19T04:52:36;39.10;;;18.65;;
9854;SDS011;4966;48.112;9.282;2022-08-19T04:55:01;40.95;;;17.98;;
9854;SDS011;4966;48.112;9.282;2022-08-19T04:57:27;36.10;;;17.58;;
9854;SDS011;4966;48.112;9.282;2022-08-19T04:59:55;39.58;;;17.75;;
9854;SDS011;4966;48.112;9.282;2022-08-19T05:02:21;39.67;;;19.15;;
9854;SDS011;4966;48.112;9.282;2022-08-19T05:07:16;37.33;;;17.33;;
9854;SDS011;4966;48.112;9.282;2022-08-19T05:09:41;38.08;;;18.00;;
9854;SDS011;4966;48.112;9.282;2022-08-19T05:12:07;43.28;;;19.60;;
9854;SDS011;4966;48.112;9.282;2022-08-19T05:14:33;38.10;;;17.60;;
9854;SDS011;4966;48.112;9.282;2022-08-19T05:17:00;41.88;;;18.05;;
9854;SDS011;4966;48.112;9.282;2022-08-19T05:19:25;40.13;;;18.88;;
9854;SDS011;4966;48.112;9.282;2022-08-19T05:22:09;40.10;;;19.30;;
9854;SDS011;4966;48.112;9.282;2022-08-19T05:24:53;39.22;;;17.60;;
9854;SDS011;4966;48.112;9.282;2022-08-19T05:27:19;33.17;;;16.70;;
9854;SDS011;4966;48.112;9.282;2022-08-19T05:29:44;38.30;;;17.48;;
9854;SDS011;4966;48.112;9.282;2022-08-19T05:32:10;44.90;;;20.58;;
9854;SDS011;4966;48.112;9.282;2022-08-19T05:34:35;38.90;;;19.13;;
9854;SDS011;4966;48.112;9.282;2022-08-19T05:37:03;41.60;;;18.80;;
9854;SDS011;4966;48.112;9.282;2022-08-19T05:39:30;35.55;;;16.75;;
9854;SDS011;4966;48.112;9.282;2022-08-19T05:41:58;41.65;;;17.98;;
9854;SDS011;4966;48.112;9.282;2022-08-19T05:44:31;37.53;;;18.23;;
9854;SDS011;4966;48.112;9.282;2022-08-19T05:46:58;40.58;;;19.05;;
9854;SDS011;4966;48.112;9.282;2022-08-19T05:49:24;40.05;;;19.17;;
9854;SDS011;4966;48.112;9.282;2022-08-19T05:51:52;42.75;;;20.05;;
9854;SDS011;4966;48.112;9.282;2022-08-19T05:54:19;42.42;;;19.17;;
9854;SDS011;4966;48.112;9.282;2022-08-19T05:56:45;44.05;;;20.60;;
9854;SDS011;4966;48.112;9.282;2022-08-19T05:59:13;39.05;;;19.17;;
9854;SDS011;4966;48.112;9.282;2022-08-19T06:01:41;43.95;;;19.77;;
9854;SDS011;4966;48.112;9.282;2022-08-19T06:04:10;44.47;;;21.20;;
9854;SDS011;4966;48.112;9.282;2022-08-19T06:06:36;42.78;;;20.15;;
9854;SDS011;4966;48.112;9.282;2022-08-19T06:09:03;42.28;;;20.38;;
9854;SDS011;4966;48.112;9.282;2022-08-19T06:14:27;46.22;;;20.20;;
9854;SDS011;4966;48.112;9.282;2022-08-19T06:16:54;45.95;;;21.05;;
9854;SDS011;4966;48.112;9.282;2022-08-19T06:19:21;46.42;;;20.83;;
9854;SDS011;4966;48.112;9.282;2022-08-19T06:21:49;42.92;;;20.33;;
9854;SDS011;4966;48.112;9.282;2022-08-19T06:24:17;47.70;;;21.13;;
9854;SDS011;4966;48.112;9.282;2022-08-19T06:26:48;45.75;;;21.42;;
9854;SDS011;4966;48.112;9.282;2022-08-19T06:29:15;44.08;;;20.73;;
9854;SDS011;4966;48.112;9.282;2022-08-19T06:31:42;50.85;;;22.15;;
9854;SDS011;4966;48.112;9.282;2022-08-19T06:34:10;44.13;;;20.88;;
9854;SDS011;4966;48.112;9.282;2022-08-19T06:36:36;40.58;;;18.70;;
9854;SDS011;4966;48.112;9.282;2022-08-19T06:39:06;44.38;;;20.83;;
9854;SDS011;4966;48.112;9.282;2022-08-19T06:41:38;37.72;;;18.70;;
9854;SDS011;4966;48.112;9.282;2022-08-19T06:44:09;42.70;;;19.90;;
9854;SDS011;4966;48.112;9.282;2022-08-19T06:46:35;46.75;;;22.30;;
9854;SDS011;4966;48.112;9.282;2022-08-19T06:49:02;41.15;;;20.10;;
9854;SDS011;4966;48.112;9.282;2022-08-19T06:51:28;45.40;;;20.35;;
9854;SDS011;4966;48.112;9.282;2022-08-19T06:53:54;44.95;;;20.13;;
9854;SDS011;4966;48.112;9.282;2022-08-19T06:56:22;46.90;;;21.33;;
9854;SDS011;4966;48.112;9.282;2022-08-19T06:59:05;43.15;;;19.45;;
9854;SDS011;4966;48.112;9.282;2022-08-19T07:01:39;42.70;;;20.50;;
9854;SDS011;4966;48.112;9.282;2022-08-19T07:04:07;45.05;;;21.42;;
9854;SDS011;4966;48.112;9.282;2022-08-19T07:06:34;46.58;;;22.05;;
9854;SDS011;4966;48.112;9.282;2022-08-19T07:09:01;44.42;;;20.48;;
9854;SDS011;4966;48.112;9.282;2022-08-19T07:11:27;44.67;;;20.17;;
9854;SDS011;4966;48.112;9.282;2022-08-19T07:13:52;46.90;;;20.85;;
9854;SDS011;4966;48.112;9.282;2022-08-19T07:16:19;48.42;;;20.77;;
9854;SDS011;4966;48.112;9.282;2022-08-19T07:18:46;46.00;;;20.75;;
9854;SDS011;4966;48.112;9.282;2022-08-19T07:21:17;50.33;;;22.35;;
9854;SDS011;4966;48.112;9.282;2022-08-19T07:23:46;49.70;;;22.02;;
9854;SDS011;4966;48.112;9.282;2022-08-19T07:26:17;51.65;;;22.95;;
9854;SDS011;4966;48.112;9.282;2022-08-19T07:28:48;51.40;;;22.42;;
9854;SDS011;4966;48.112;9.282;2022-08-19T07:31:18;48.45;;;22.17;;
9854;SDS011;4966;48.112;9.282;2022-08-19T07:33:46;49.13;;;21.63;;
9854;SDS011;4966;48.112;9.282;2022-08-19T07:36:13;51.42;;;22.55;;
9854;SDS011;4966;48.112;9.282;2022-08-19T07:38:42;52.40;;;21.98;;
9854;SDS011;4966;48.112;9.282;2022-08-19T07:41:09;53.88;;;23.35;;
9854;SDS011;4966;48.112;9.282;2022-08-19T07:43:37;49.42;;;22.15;;
9854;SDS011;4966;48.112;9.282;2022-08-19T07:46:03;50.65;;;23.50;;
9854;SDS011;4966;48.112;9.282;2022-08-19T07:48:29;53.30;;;23.38;;
9854;SDS011;4966;48.112;9.282;2022-08-19T07:50:55;54.47;;;24.33;;
9854;SDS011;4966;48.112;9.282;2022-08-19T07:53:23;53.13;;;23.15;;
9854;SDS011;4966;48.112;9.282;2022-08-19T07:55:49;52.80;;;23.73;;
9854;SDS011;4966;48.112;9.282;2022-08-19T07:58:17;50.65;;;23.23;;
9854;SDS011;4966;48.112;9.282;2022-08-19T08:00:45;56.00;;;23.55;;
9854;SDS011;4966;48.112;9.282;2022-08-19T08:03:12;55.45;;;25.45;;
9854;SDS011;4966;48.112;9.282;2022-08-19T08:05:39;55.35;;;23.45;;
9854;SDS011;4966;48.112;9.282;2022-08-19T08:08:23;49.78;;;22.30;;
9854;SDS011;4966;48.112;9.282;2022-08-19T08:11:00;47.30;;;22.50;;
9854;SDS011;4966;48.112;9.282;2022-08-19T08:13:26;52.58;;;22.55;;
9854;SDS011;4966;48.112;9.282;2022-08-19T08:15:52;50.33;;;22.70;;
9854;SDS011;4966;48.112;9.282;2022-08-19T08:18:18;49.70;;;22.92;;
9854;SDS011;4966;48.112;9.282;2022-08-19T08:20:45;47.10;;;22.70;;
9854;SDS011;4966;48.112;9.282;2022-08-19T08:23:12;44.97;;;20.15;;
9854;SDS011;4966;48.112;9.282;2022-08-19T08:25:55;47.08;;;20.98;;
9854;SDS011;4966;48.112;9.282;2022-08-19T08:28:22;48.40;;;22.15;;
9854;SDS011;4966;48.112;9.282;2022-08-19T08:30:48;49.60;;;22.17;;
9854;SDS011;4966;48.112;9.282;2022-08-19T08:33:24;42.92;;;21.08;;
9854;SDS011;4966;48.112;9.282;2022-08-19T08:35:50;39.72;;;19.88;;
9854;SDS011;4966;48.112;9.282;2022-08-19T08:38:17;44.95;;;20.25;;
9854;SDS011;4966;48.112;9.282;2022-08-19T08:46:03;40.65;;;19.92;;
9854;SDS011;4966;48.112;9.282;2022-08-19T08:51:03;38.78;;;19.15;;
9854;SDS011;4966;48.112;9.282;2022-08-19T08:53:32;42.58;;;19.55;;
9854;SDS011;4966;48.112;9.282;2022-08-19T08:56:00;34.45;;;18.05;;
9854;SDS011;4966;48.112;9.282;2022-08-19T08:59:21;35.20;;;19.05;;
9854;SDS011;4966;48.112;9.282;2022-08-19T09:01:22;37.53;;;17.55;;
9854;SDS011;4966;48.112;9.282;2022-08-19T09:03:47;38.85;;;17.90;;
9854;SDS011;4966;48.112;9.282;2022-08-19T09:11:55;32.90;;;15.65;;
9854;SDS011;4966;48.112;9.282;2022-08-19T09:15:03;31.88;;;16.75;;
9854;SDS011;4966;48.112;9.282;2022-08-19T09:17:28;28.35;;;15.25;;
9854;SDS011;4966;48.112;9.282;2022-08-19T09:22:40;29.33;;;15.20;;
9854;SDS011;4966;48.112;9.282;2022-08-19T09:25:11;27.42;;;14.98;;
9854;SDS011;4966;48.112;9.282;2022-08-19T09:27:40;30.15;;;15.00;;
9854;SDS011;4966;48.112;9.282;2022-08-19T09:30:06;29.75;;;15.48;;
9854;SDS011;4966;48.112;9.282;2022-08-19T09:32:33;25.13;;;12.60;;
9854;SDS011;4966;48.112;9.282;2022-08-19T09:34:59;26.65;;;14.43;;
9854;SDS011;4966;48.112;9.282;2022-08-19T09:37:25;26.40;;;13.32;;
9854;SDS011;4966;48.112;9.282;2022-08-19T09:39:51;25.63;;;13.38;;
9854;SDS011;4966;48.112;9.282;2022-08-19T09:42:17;28.20;;;14.43;;
9854;SDS011;4966;48.112;9.282;2022-08-19T09:44:43;24.95;;;14.32;;
9854;SDS011;4966;48.112;9.282;2022-08-19T09:47:09;24.02;;;12.48;;
9854;SDS011;4966;48.112;9.282;2022-08-19T09:49:36;23.33;;;12.55;;
9854;SDS011;4966;48.112;9.282;2022-08-19T09:52:04;24.48;;;13.23;;
9854;SDS011;4966;48.112;9.282;2022-08-19T09:54:32;20.73;;;11.90;;
9854;SDS011;4966;48.112;9.282;2022-08-19T09:56:58;20.00;;;11.38;;
9854;SDS011;4966;48.112;9.282;2022-08-19T09:59:25;19.60;;;11.68;;
9854;SDS011;4966;48.112;9.282;2022-08-19T10:01:50;20.45;;;10.95;;
9854;SDS011;4966;48.112;9.282;2022-08-19T10:04:16;18.27;;;10.23;;
9854;SDS011;4966;48.112;9.282;2022-08-19T10:06:42;18.95;;;10.60;;
9854;SDS011;4966;48.112;9.282;2022-08-19T10:09:07;19.20;;;10.38;;
9854;SDS011;4966;48.112;9.282;2022-08-19T10:11:35;19.83;;;10.90;;
9854;SDS011;4966;48.112;9.282;2022-08-19T10:14:02;18.70;;;10.82;;
9854;SDS011;4966;48.112;9.282;2022-08-19T10:16:30;17.75;;;10.27;;
9854;SDS011;4966;48.112;9.282;2022-08-19T10:18:56;15.30;;;9.13;;
9854;SDS011;4966;48.112;9.282;2022-08-19T10:21:24;12.88;;;8.43;;
9854;SDS011;4966;48.112;9.282;2022-08-19T10:23:52;15.45;;;9.23;;
9854;SDS011;4966;48.112;9.282;2022-08-19T10:26:24;14.15;;;7.97;;
9854;SDS011;4966;48.112;9.282;2022-08-19T10:28:51;11.73;;;7.55;;
9854;SDS011;4966;48.112;9.282;2022-08-19T10:31:20;13.63;;;7.18;;
9854;SDS011;4966;48.112;9.282;2022-08-19T10:33:48;10.70;;;6.72;;
9854;SDS011;4966;48.112;9.282;2022-08-19T10:36:16;10.20;;;6.88;;
9854;SDS011;4966;48.112;9.282;2022-08-19T10:38:43;11.20;;;7.55;;
9854;SDS011;4966;48.112;9.282;2022-08-19T10:41:14;10.68;;;6.13;;
9854;SDS011;4966;48.112;9.282;2022-08-19T10:43:41;11.25;;;5.90;;
9854;SDS011;4966;48.112;9.282;2022-08-19T10:46:08;10.27;;;5.75;;
9854;SDS011;4966;48.112;9.282;2022-08-19T10:48:35;8.63;;;5.60;;
9854;SDS011;4966;48.112;9.282;2022-08-19T10:51:02;9.50;;;6.47;;
9854;SDS011;4966;48.112;9.282;2022-08-19T10:53:46;8.55;;;5.43;;
9854;SDS011;4966;48.112;9.282;2022-08-19T10:56:12;9.65;;;6.05;;
9854;SDS011;4966;48.112;9.282;2022-08-19T10:58:56;9.00;;;6.05;;
9854;SDS011;4966;48.112;9.282;2022-08-19T11:01:23;11.20;;;7.20;;
9854;SDS011;4966;48.112;9.282;2022-08-19T11:03:49;14.73;;;7.75;;
9854;SDS011;4966;48.112;9.282;2022-08-19T11:06:14;12.35;;;7.38;;
9854;SDS011;4966;48.112;9.282;2022-08-19T11:08:40;14.63;;;8.13;;
9854;SDS011;4966;48.112;9.282;2022-08-19T11:11:07;12.25;;;7.60;;
9854;SDS011;4966;48.112;9.282;2022-08-19T11:13:33;12.95;;;7.63;;
9854;SDS011;4966;48.112;9.282;2022-08-19T11:16:06;10.10;;;6.38;;
9854;SDS011;4966;48.112;9.282;2022-08-19T11:18:35;9.68;;;5.45;;
9854;SDS011;4966;48.112;9.282;2022-08-19T11:21:14;9.60;;;5.82;;
9854;SDS011;4966;48.112;9.282;2022-08-19T11:23:44;8.55;;;4.57;;
9854;SDS011;4966;48.112;9.282;2022-08-19T11:26:11;11.02;;;6.50;;
9854;SDS011;4966;48.112;9.282;2022-08-19T11:28:37;14.35;;;6.70;;
9854;SDS011;4966;48.112;9.282;2022-08-19T11:31:03;5.85;;;3.80;;
9854;SDS011;4966;48.112;9.282;2022-08-19T11:33:34;11.15;;;3.53;;
9854;SDS011;4966;48.112;9.282;2022-08-19T11:35:59;5.85;;;3.35;;
9854;SDS011;4966;48.112;9.282;2022-08-19T11:38:26;4.00;;;2.75;;
9854;SDS011;4966;48.112;9.282;2022-08-19T11:40:59;5.75;;;3.20;;
9854;SDS011;4966;48.112;9.282;2022-08-19T11:43:26;3.13;;;2.17;;
9854;SDS011;4966;48.112;9.282;2022-08-19T11:45:53;3.00;;;2.05;;
9854;SDS011;4966;48.112;9.282;2022-08-19T11:48:20;4.25;;;2.35;;
9854;SDS011;4966;48.112;9.282;2022-08-19T11:50:47;4.25;;;2.72;;
9854;SDS011;4966;48.112;9.282;2022-08-19T11:53:13;3.80;;;2.70;;
9854;SDS011;4966;48.112;9.282;2022-08-19T11:55:38;5.15;;;3.33;;
9854;SDS011;4966;48.112;9.282;2022-08-19T11:58:05;4.55;;;3.17;;
9854;SDS011;4966;48.112;9.282;2022-08-19T12:00:31;6.40;;;4.05;;
9854;SDS011;4966;48.112;9.282;2022-08-19T12:03:00;8.93;;;4.60;;
9854;SDS011;4966;48.112;9.282;2022-08-19T12:05:25;7.93;;;5.07;;
9854;SDS011;4966;48.112;9.282;2022-08-19T12:07:51;9.25;;;6.35;;
9854;SDS011;4966;48.112;9.282;2022-08-19T12:10:16;9.88;;;6.20;;
9854;SDS011;4966;48.112;9.282;2022-08-19T12:12:42;10.80;;;7.25;;
9854;SDS011;4966;48.112;9.282;2022-08-19T12:15:10;12.15;;;7.78;;
9854;SDS011;4966;48.112;9.282;2022-08-19T12:17:37;13.20;;;8.20;;
9854;SDS011;4966;48.112;9.282;2022-08-19T12:20:03;15.68;;;8.80;;
9854;SDS011;4966;48.112;9.282;2022-08-19T12:22:30;16.33;;;9.52;;
9854;SDS011;4966;48.112;9.282;2022-08-19T12:24:55;12.75;;;8.48;;
9854;SDS011;4966;48.112;9.282;2022-08-19T12:27:21;14.15;;;8.30;;
9854;SDS011;4966;48.112;9.282;2022-08-19T12:29:47;15.05;;;9.40;;
9854;SDS011;4966;48.112;9.282;2022-08-19T12:32:12;14.32;;;8.77;;
9854;SDS011;4966;48.112;9.282;2022-08-19T12:34:38;16.55;;;10.88;;
9854;SDS011;4966;48.112;9.282;2022-08-19T12:37:05;16.85;;;9.70;;
9854;SDS011;4966;48.112;9.282;2022-08-19T12:39:35;21.00;;;10.02;;
9854;SDS011;4966;48.112;9.282;2022-08-19T12:42:03;16.13;;;9.88;;
9854;SDS011;4966;48.112;9.282;2022-08-19T12:44:29;17.42;;;10.27;;
9854;SDS011;4966;48.112;9.282;2022-08-19T12:46:55;17.90;;;10.70;;
9854;SDS011;4966;48.112;9.282;2022-08-19T12:49:21;21.80;;;11.82;;
9854;SDS011;4966;48.112;9.282;2022-08-19T12:51:47;17.67;;;10.85;;
9854;SDS011;4966;48.112;9.282;2022-08-19T12:54:12;17.67;;;12.20;;
9854;SDS011;4966;48.112;9.282;2022-08-19T12:56:38;17.70;;;11.23;;
9854;SDS011;4966;48.112;9.282;2022-08-19T12:59:03;20.67;;;12.02;;
9854;SDS011;4966;48.112;9.282;2022-08-19T13:01:29;18.17;;;11.13;;
9854;SDS011;4966;48.112;9.282;2022-08-19T13:03:57;21.30;;;11.02;;
9854;SDS011;4966;48.112;9.282;2022-08-19T13:06:24;21.20;;;11.90;;
9854;SDS011;4966;48.112;9.282;2022-08-19T13:08:50;19.23;;;11.23;;
9854;SDS011;4966;48.112;9.282;2022-08-19T13:11:17;16.02;;;10.65;;
9854;SDS011;4966;48.112;9.282;2022-08-19T13:16:12;19.80;;;11.52;;
9854;SDS011;4966;48.112;9.282;2022-08-19T13:18:39;18.23;;;11.55;;
9854;SDS011;4966;48.112;9.282;2022-08-19T13:21:07;18.48;;;12.10;;
9854;SDS011;4966;48.112;9.282;2022-08-19T13:23:34;23.13;;;12.10;;
9854;SDS011;4966;48.112;9.282;2022-08-19T13:26:04;19.05;;;12.07;;
9854;SDS011;4966;48.112;9.282;2022-08-19T13:28:31;20.27;;;12.75;;
9854;SDS011;4966;48.112;9.282;2022-08-19T13:31:20;18.95;;;12.25;;
9854;SDS011;4966;48.112;9.282;2022-08-19T13:34:06;21.23;;;14.20;;
9854;SDS011;4966;48.112;9.282;2022-08-19T13:36:35;20.65;;;13.35;;
9854;SDS011;4966;48.112;9.282;2022-08-19T13:39:01;21.58;;;13.82;;
9854;SDS011;4966;48.112;9.282;2022-08-19T13:41:27;21.05;;;12.70;;
9854;SDS011;4966;48.112;9.282;2022-08-19T13:43:53;20.60;;;13.05;;
9854;SDS011;4966;48.112;9.282;2022-08-19T13:46:19;17.58;;;11.18;;
9854;SDS011;4966;48.112;9.282;2022-08-19T13:48:45;16.50;;;10.77;;
9854;SDS011;4966;48.112;9.282;2022-08-19T13:51:12;17.60;;;11.00;;
9854;SDS011;4966;48.112;9.282;2022-08-19T13:53:38;18.67;;;11.48;;
9854;SDS011;4966;48.112;9.282;2022-08-19T13:56:07;16.90;;;11.05;;
9854;SDS011;4966;48.112;9.282;2022-08-19T13:58:34;14.55;;;11.55;;
9854;SDS011;4966;48.112;9.282;2022-08-19T14:00:59;14.93;;;10.65;;
9854;SDS011;4966;48.112;9.282;2022-08-19T14:03:25;17.15;;;11.88;;
9854;SDS011;4966;48.112;9.282;2022-08-19T14:05:51;15.40;;;10.50;;
9854;SDS011;4966;48.112;9.282;2022-08-19T14:08:17;14.50;;;10.60;;
9854;SDS011;4966;48.112;9.282;2022-08-19T14:10:43;17.63;;;11.63;;
9854;SDS011;4966;48.112;9.282;2022-08-19T14:13:09;20.45;;;12.85;;
9854;SDS011;4966;48.112;9.282;2022-08-19T14:15:37;20.42;;;13.10;;
9854;SDS011;4966;48.112;9.282;2022-08-19T14:18:03;20.30;;;13.30;;
9854;SDS011;4966;48.112;9.282;2022-08-19T14:20:28;20.15;;;12.38;;
9854;SDS011;4966;48.112;9.282;2022-08-19T14:22:54;19.35;;;12.98;;
9854;SDS011;4966;48.112;9.282;2022-08-19T14:25:21;18.48;;;12.52;;
9854;SDS011;4966;48.112;9.282;2022-08-19T14:27:51;19.20;;;12.10;;
9854;SDS011;4966;48.112;9.282;2022-08-19T14:30:19;16.90;;;12.18;;
9854;SDS011;4966;48.112;9.282;2022-08-19T14:32:46;19.13;;;12.32;;
9854;SDS011;4966;48.112;9.282;2022-08-19T14:35:12;20.23;;;14.05;;
9854;SDS011;4966;48.112;9.282;2022-08-19T14:37:40;16.52;;;11.73;;
9854;SDS011;4966;48.112;9.282;2022-08-19T14:40:06;20.55;;;11.95;;
9854;SDS011;4966;48.112;9.282;2022-08-19T14:42:33;17.65;;;12.13;;
9854;SDS011;4966;48.112;9.282;2022-08-19T14:44:59;19.85;;;12.60;;
9854;SDS011;4966;48.112;9.282;2022-08-19T14:47:25;20.20;;;12.95;;
9854;SDS011;4966;48.112;9.282;2022-08-19T14:49:51;22.20;;;14.20;;
9854;SDS011;4966;48.112;9.282;2022-08-19T14:52:16;21.08;;;13.60;;
9854;SDS011;4966;48.112;9.282;2022-08-19T14:54:42;21.77;;;13.52;;
9854;SDS011;4966;48.112;9.282;2022-08-19T14:57:07;21.90;;;14.32;;
9854;SDS011;4966;48.112;9.282;2022-08-19T14:59:37;19.88;;;13.50;;
9854;SDS011;4966;48.112;9.282;2022-08-19T15:02:03;22.40;;;14.27;;
9854;SDS011;4966;48.112;9.282;2022-08-19T15:04:28;23.25;;;15.02;;
9854;SDS011;4966;48.112;9.282;2022-08-19T15:06:54;21.92;;;15.00;;
9854;SDS011;4966;48.112;9.282;2022-08-19T15:09:19;23.88;;;14.93;;
9854;SDS011;4966;48.112;9.282;2022-08-19T15:11:44;24.92;;;15.63;;
9854;SDS011;4966;48.112;9.282;2022-08-19T15:14:10;27.50;;;15.27;;
9854;SDS011;4966;48.112;9.282;2022-08-19T15:16:35;24.63;;;16.00;;
9854;SDS011;4966;48.112;9.282;2022-08-19T15:19:02;28.15;;;16.30;;
9854;SDS011;4966;48.112;9.282;2022-08-19T15:21:28;29.00;;;17.33;;
9854;SDS011;4966;48.112;9.282;2022-08-19T15:23:55;28.48;;;17.38;;